sensor_id;sensor_type;location;lat;lon;timestamp;P1;durP1;ratioP1;P2;durP2;ratioP2
9248;SDS011;4660;41.768;26.198;2022-08-04T00:10:41;3.92;;;2.75;;
9248;SDS011;4660;41.768;26.198;2022-08-04T00:13:12;3.03;;;2.75;;
9248;SDS011;4660;41.768;26.198;2022-08-04T00:15:41;4.97;;;3.08;;
9248;SDS011;4660;41.768;26.198;2022-08-04T00:18:08;4.95;;;2.75;;
9248;SDS011;4660;41.768;26.198;2022-08-04T00:20:39;4.70;;;2.72;;
9248;SDS011;4660;41.768;26.198;2022-08-04T00:23:07;3.28;;;2.97;;
9248;SDS011;4660;41.768;26.198;2022-08-04T00:25:37;5.13;;;3.00;;
9248;SDS011;4660;41.768;26.198;2022-08-04T00:28:05;3.25;;;2.95;;
9248;SDS011;4660;41.768;26.198;2022-08-04T00:30:30;3.60;;;3.13;;
9248;SDS011;4660;41.768;26.198;2022-08-04T00:32:57;4.80;;;3.53;;
9248;SDS011;4660;41.768;26.198;2022-08-04T00:35:24;4.57;;;3.72;;
9248;SDS011;4660;41.768;26.198;2022-08-04T00:37:52;3.88;;;3.15;;
9248;SDS011;4660;41.768;26.198;2022-08-04T00:48:41;6.97;;;3.55;;
9248;SDS011;4660;41.768;26.198;2022-08-04T00:51:36;3.92;;;3.53;;
9248;SDS011;4660;41.768;26.198;2022-08-04T01:00:09;5.85;;;3.80;;
9248;SDS011;4660;41.768;26.198;2022-08-04T01:02:45;9.85;;;6.05;;
9248;SDS011;4660;41.768;26.198;2022-08-04T01:16:09;16.58;;;11.25;;
9248;SDS011;4660;41.768;26.198;2022-08-04T01:18:51;19.25;;;11.27;;
9248;SDS011;4660;41.768;26.198;2022-08-04T01:30:06;45.75;;;26.73;;
9248;SDS011;4660;41.768;26.198;2022-08-04T01:32:33;51.78;;;29.23;;
9248;SDS011;4660;41.768;26.198;2022-08-04T01:40:44;52.30;;;29.90;;
9248;SDS011;4660;41.768;26.198;2022-08-04T01:43:12;41.30;;;21.70;;
9248;SDS011;4660;41.768;26.198;2022-08-04T01:45:38;25.23;;;14.45;;
9248;SDS011;4660;41.768;26.198;2022-08-04T01:48:06;23.95;;;13.52;;
9248;SDS011;4660;41.768;26.198;2022-08-04T01:50:34;21.58;;;11.40;;
9248;SDS011;4660;41.768;26.198;2022-08-04T01:53:00;16.25;;;10.55;;
9248;SDS011;4660;41.768;26.198;2022-08-04T01:55:28;17.20;;;10.18;;
9248;SDS011;4660;41.768;26.198;2022-08-04T01:57:55;18.13;;;10.45;;
9248;SDS011;4660;41.768;26.198;2022-08-04T02:00:24;16.52;;;10.32;;
9248;SDS011;4660;41.768;26.198;2022-08-04T02:02:52;18.48;;;10.05;;
9248;SDS011;4660;41.768;26.198;2022-08-04T02:05:20;14.90;;;10.77;;
9248;SDS011;4660;41.768;26.198;2022-08-04T02:08:12;17.67;;;10.82;;
9248;SDS011;4660;41.768;26.198;2022-08-04T02:10:53;14.27;;;10.25;;
9248;SDS011;4660;41.768;26.198;2022-08-04T02:13:44;16.17;;;9.38;;
9248;SDS011;4660;41.768;26.198;2022-08-04T02:16:48;18.95;;;9.73;;
9248;SDS011;4660;41.768;26.198;2022-08-04T02:19:20;20.02;;;11.35;;
9248;SDS011;4660;41.768;26.198;2022-08-04T02:21:50;19.85;;;12.10;;
9248;SDS011;4660;41.768;26.198;2022-08-04T02:24:22;18.10;;;11.50;;
9248;SDS011;4660;41.768;26.198;2022-08-04T02:26:51;20.90;;;11.57;;
9248;SDS011;4660;41.768;26.198;2022-08-04T02:32:14;16.52;;;9.82;;
9248;SDS011;4660;41.768;26.198;2022-08-04T02:37:20;14.07;;;7.93;;
9248;SDS011;4660;41.768;26.198;2022-08-04T02:39:49;11.93;;;7.32;;
9248;SDS011;4660;41.768;26.198;2022-08-04T02:42:17;10.15;;;5.93;;
9248;SDS011;4660;41.768;26.198;2022-08-04T02:44:50;8.52;;;5.80;;
9248;SDS011;4660;41.768;26.198;2022-08-04T02:47:16;10.65;;;7.90;;
9248;SDS011;4660;41.768;26.198;2022-08-04T02:49:44;11.15;;;5.70;;
9248;SDS011;4660;41.768;26.198;2022-08-04T02:52:11;8.55;;;6.05;;
9248;SDS011;4660;41.768;26.198;2022-08-04T02:54:39;7.32;;;5.40;;
9248;SDS011;4660;41.768;26.198;2022-08-04T02:57:16;7.20;;;5.18;;
9248;SDS011;4660;41.768;26.198;2022-08-04T03:05:16;4.82;;;4.30;;
9248;SDS011;4660;41.768;26.198;2022-08-04T03:16:04;5.53;;;4.60;;
9248;SDS011;4660;41.768;26.198;2022-08-04T03:27:11;8.23;;;5.22;;
9248;SDS011;4660;41.768;26.198;2022-08-04T03:40:44;9.48;;;5.35;;
9248;SDS011;4660;41.768;26.198;2022-08-04T03:43:27;9.20;;;6.75;;
9248;SDS011;4660;41.768;26.198;2022-08-04T03:54:31;5.20;;;4.57;;
9248;SDS011;4660;41.768;26.198;2022-08-04T04:00:11;5.07;;;4.60;;
9248;SDS011;4660;41.768;26.198;2022-08-04T04:05:29;7.53;;;4.43;;
9248;SDS011;4660;41.768;26.198;2022-08-04T04:14:01;5.80;;;5.22;;
9248;SDS011;4660;41.768;26.198;2022-08-04T04:16:48;7.07;;;4.82;;
9248;SDS011;4660;41.768;26.198;2022-08-04T04:27:36;11.95;;;9.55;;
9248;SDS011;4660;41.768;26.198;2022-08-04T04:30:22;13.18;;;10.30;;
9248;SDS011;4660;41.768;26.198;2022-08-04T04:38:28;20.05;;;13.77;;
9248;SDS011;4660;41.768;26.198;2022-08-04T04:55:14;22.23;;;17.15;;
9248;SDS011;4660;41.768;26.198;2022-08-04T04:57:45;33.25;;;22.83;;
9248;SDS011;4660;41.768;26.198;2022-08-04T05:00:15;34.40;;;23.85;;
9248;SDS011;4660;41.768;26.198;2022-08-04T05:05:41;30.73;;;22.05;;
9248;SDS011;4660;41.768;26.198;2022-08-04T05:10:46;49.35;;;27.35;;
9248;SDS011;4660;41.768;26.198;2022-08-04T05:15:48;46.70;;;29.65;;
9248;SDS011;4660;41.768;26.198;2022-08-04T05:18:21;51.63;;;31.25;;
9248;SDS011;4660;41.768;26.198;2022-08-04T05:20:56;51.80;;;33.55;;
9248;SDS011;4660;41.768;26.198;2022-08-04T05:23:29;67.38;;;37.90;;
9248;SDS011;4660;41.768;26.198;2022-08-04T05:26:00;69.72;;;42.33;;
9248;SDS011;4660;41.768;26.198;2022-08-04T05:28:40;71.07;;;43.03;;
9248;SDS011;4660;41.768;26.198;2022-08-04T05:31:11;71.20;;;43.88;;
9248;SDS011;4660;41.768;26.198;2022-08-04T05:33:48;73.68;;;43.17;;
9248;SDS011;4660;41.768;26.198;2022-08-04T05:36:19;82.32;;;49.53;;
9248;SDS011;4660;41.768;26.198;2022-08-04T05:38:54;101.43;;;52.78;;
9248;SDS011;4660;41.768;26.198;2022-08-04T05:41:24;100.78;;;58.65;;
9248;SDS011;4660;41.768;26.198;2022-08-04T05:43:55;108.47;;;60.63;;
9248;SDS011;4660;41.768;26.198;2022-08-04T05:46:22;114.88;;;65.50;;
9248;SDS011;4660;41.768;26.198;2022-08-04T05:48:50;116.35;;;63.88;;
9248;SDS011;4660;41.768;26.198;2022-08-04T05:51:17;103.72;;;58.75;;
9248;SDS011;4660;41.768;26.198;2022-08-04T05:53:43;80.13;;;45.63;;
9248;SDS011;4660;41.768;26.198;2022-08-04T05:56:13;86.93;;;48.13;;
9248;SDS011;4660;41.768;26.198;2022-08-04T05:58:39;83.65;;;44.40;;
9248;SDS011;4660;41.768;26.198;2022-08-04T06:01:07;77.43;;;44.13;;
9248;SDS011;4660;41.768;26.198;2022-08-04T06:03:35;56.33;;;29.20;;
9248;SDS011;4660;41.768;26.198;2022-08-04T06:06:04;51.03;;;29.42;;
9248;SDS011;4660;41.768;26.198;2022-08-04T06:08:31;32.30;;;19.73;;
9248;SDS011;4660;41.768;26.198;2022-08-04T06:10:58;31.00;;;18.30;;
9248;SDS011;4660;41.768;26.198;2022-08-04T06:13:29;19.35;;;10.32;;
9248;SDS011;4660;41.768;26.198;2022-08-04T06:15:57;11.88;;;8.30;;
9248;SDS011;4660;41.768;26.198;2022-08-04T06:18:32;16.15;;;9.68;;
9248;SDS011;4660;41.768;26.198;2022-08-04T06:21:02;17.30;;;9.45;;
9248;SDS011;4660;41.768;26.198;2022-08-04T06:23:30;16.88;;;9.88;;
9248;SDS011;4660;41.768;26.198;2022-08-04T06:26:00;22.50;;;14.20;;
9248;SDS011;4660;41.768;26.198;2022-08-04T06:28:27;22.52;;;13.25;;
9248;SDS011;4660;41.768;26.198;2022-08-04T06:30:55;25.38;;;12.73;;
9248;SDS011;4660;41.768;26.198;2022-08-04T06:33:30;16.17;;;10.20;;
9248;SDS011;4660;41.768;26.198;2022-08-04T06:35:58;6.22;;;5.10;;
9248;SDS011;4660;41.768;26.198;2022-08-04T06:38:26;4.75;;;3.75;;
9248;SDS011;4660;41.768;26.198;2022-08-04T06:40:53;8.20;;;3.38;;
9248;SDS011;4660;41.768;26.198;2022-08-04T06:43:24;3.75;;;3.10;;
9248;SDS011;4660;41.768;26.198;2022-08-04T06:45:51;5.15;;;3.10;;
9248;SDS011;4660;41.768;26.198;2022-08-04T06:48:19;7.40;;;2.63;;
9248;SDS011;4660;41.768;26.198;2022-08-04T06:50:47;5.85;;;2.72;;
9248;SDS011;4660;41.768;26.198;2022-08-04T06:53:14;3.17;;;2.80;;
9248;SDS011;4660;41.768;26.198;2022-08-04T06:55:41;4.68;;;2.28;;
9248;SDS011;4660;41.768;26.198;2022-08-04T06:58:10;3.60;;;2.65;;
9248;SDS011;4660;41.768;26.198;2022-08-04T07:00:42;3.03;;;2.60;;
9248;SDS011;4660;41.768;26.198;2022-08-04T07:03:11;4.43;;;2.78;;
9248;SDS011;4660;41.768;26.198;2022-08-04T07:05:39;6.18;;;2.95;;
9248;SDS011;4660;41.768;26.198;2022-08-04T07:08:11;5.43;;;3.50;;
9248;SDS011;4660;41.768;26.198;2022-08-04T07:10:39;7.45;;;3.15;;
9248;SDS011;4660;41.768;26.198;2022-08-04T07:13:06;5.15;;;3.70;;
9248;SDS011;4660;41.768;26.198;2022-08-04T07:15:34;13.02;;;5.00;;
9248;SDS011;4660;41.768;26.198;2022-08-04T07:18:04;15.63;;;8.52;;
9248;SDS011;4660;41.768;26.198;2022-08-04T07:20:31;18.35;;;11.23;;
9248;SDS011;4660;41.768;26.198;2022-08-04T07:23:00;12.23;;;7.40;;
9248;SDS011;4660;41.768;26.198;2022-08-04T07:25:27;13.48;;;7.75;;
9248;SDS011;4660;41.768;26.198;2022-08-04T07:27:54;14.98;;;8.60;;
9248;SDS011;4660;41.768;26.198;2022-08-04T07:30:21;17.52;;;11.40;;
9248;SDS011;4660;41.768;26.198;2022-08-04T07:32:54;18.42;;;10.80;;
9248;SDS011;4660;41.768;26.198;2022-08-04T07:35:22;20.25;;;11.98;;
9248;SDS011;4660;41.768;26.198;2022-08-04T07:37:49;15.00;;;10.35;;
9248;SDS011;4660;41.768;26.198;2022-08-04T07:40:16;12.18;;;8.10;;
9248;SDS011;4660;41.768;26.198;2022-08-04T07:42:43;12.80;;;8.43;;
9248;SDS011;4660;41.768;26.198;2022-08-04T07:45:12;21.27;;;8.27;;
9248;SDS011;4660;41.768;26.198;2022-08-04T07:47:48;13.68;;;8.38;;
9248;SDS011;4660;41.768;26.198;2022-08-04T07:50:16;23.02;;;12.07;;
9248;SDS011;4660;41.768;26.198;2022-08-04T07:52:47;24.52;;;11.43;;
9248;SDS011;4660;41.768;26.198;2022-08-04T07:55:15;13.95;;;8.80;;
9248;SDS011;4660;41.768;26.198;2022-08-04T07:57:44;12.50;;;8.75;;
9248;SDS011;4660;41.768;26.198;2022-08-04T08:00:11;12.10;;;6.93;;
9248;SDS011;4660;41.768;26.198;2022-08-04T08:02:41;11.80;;;6.10;;
9248;SDS011;4660;41.768;26.198;2022-08-04T08:05:12;7.95;;;5.88;;
9248;SDS011;4660;41.768;26.198;2022-08-04T08:07:44;7.18;;;4.75;;
9248;SDS011;4660;41.768;26.198;2022-08-04T08:10:15;9.43;;;5.38;;
9248;SDS011;4660;41.768;26.198;2022-08-04T08:12:43;11.80;;;5.95;;
9248;SDS011;4660;41.768;26.198;2022-08-04T08:15:11;10.55;;;5.40;;
9248;SDS011;4660;41.768;26.198;2022-08-04T08:17:38;7.90;;;4.15;;
9248;SDS011;4660;41.768;26.198;2022-08-04T08:20:09;7.18;;;3.35;;
9248;SDS011;4660;41.768;26.198;2022-08-04T08:22:39;5.30;;;3.60;;
9248;SDS011;4660;41.768;26.198;2022-08-04T08:25:06;5.35;;;3.80;;
9248;SDS011;4660;41.768;26.198;2022-08-04T08:27:36;8.10;;;3.90;;
9248;SDS011;4660;41.768;26.198;2022-08-04T08:30:04;7.25;;;3.60;;
9248;SDS011;4660;41.768;26.198;2022-08-04T08:32:32;4.50;;;3.50;;
9248;SDS011;4660;41.768;26.198;2022-08-04T08:34:59;7.85;;;3.78;;
9248;SDS011;4660;41.768;26.198;2022-08-04T08:37:44;5.60;;;3.92;;
9248;SDS011;4660;41.768;26.198;2022-08-04T08:40:40;3.88;;;3.20;;
9248;SDS011;4660;41.768;26.198;2022-08-04T08:43:28;3.20;;;2.40;;
9248;SDS011;4660;41.768;26.198;2022-08-04T08:54:52;1.90;;;1.80;;
9248;SDS011;4660;41.768;26.198;2022-08-04T09:17:46;2.60;;;2.17;;
9248;SDS011;4660;41.768;26.198;2022-08-04T09:23:45;4.70;;;2.28;;
9248;SDS011;4660;41.768;26.198;2022-08-04T09:28:57;2.72;;;1.75;;
9248;SDS011;4660;41.768;26.198;2022-08-04T09:31:35;2.20;;;2.00;;
9248;SDS011;4660;41.768;26.198;2022-08-04T09:39:45;3.63;;;1.80;;
9248;SDS011;4660;41.768;26.198;2022-08-04T09:48:50;2.50;;;2.10;;
9248;SDS011;4660;41.768;26.198;2022-08-04T09:51:35;2.30;;;2.10;;
9248;SDS011;4660;41.768;26.198;2022-08-04T09:54:21;2.50;;;2.30;;
9248;SDS011;4660;41.768;26.198;2022-08-04T10:00:09;3.63;;;1.90;;
9248;SDS011;4660;41.768;26.198;2022-08-04T10:02:41;3.17;;;2.00;;
9248;SDS011;4660;41.768;26.198;2022-08-04T10:05:12;3.15;;;2.10;;
9248;SDS011;4660;41.768;26.198;2022-08-04T10:11:28;2.75;;;2.10;;
9248;SDS011;4660;41.768;26.198;2022-08-04T10:19:56;4.57;;;1.95;;
9248;SDS011;4660;41.768;26.198;2022-08-04T10:22:42;3.88;;;2.13;;
9248;SDS011;4660;41.768;26.198;2022-08-04T10:25:41;2.15;;;1.95;;
9248;SDS011;4660;41.768;26.198;2022-08-04T10:28:22;3.53;;;2.10;;
9248;SDS011;4660;41.768;26.198;2022-08-04T10:30:53;5.32;;;2.20;;
9248;SDS011;4660;41.768;26.198;2022-08-04T10:36:18;1.98;;;1.80;;
9248;SDS011;4660;41.768;26.198;2022-08-04T10:38:56;1.90;;;1.80;;
9248;SDS011;4660;41.768;26.198;2022-08-04T10:41:33;1.98;;;1.70;;
9248;SDS011;4660;41.768;26.198;2022-08-04T10:46:53;3.05;;;2.35;;
9248;SDS011;4660;41.768;26.198;2022-08-04T10:49:42;2.58;;;1.98;;
9248;SDS011;4660;41.768;26.198;2022-08-04T10:52:17;2.15;;;2.00;;
9248;SDS011;4660;41.768;26.198;2022-08-04T10:55:27;2.63;;;2.05;;
9248;SDS011;4660;41.768;26.198;2022-08-04T10:58:13;4.32;;;2.40;;
9248;SDS011;4660;41.768;26.198;2022-08-04T11:00:43;2.38;;;2.10;;
9248;SDS011;4660;41.768;26.198;2022-08-04T11:05:57;3.50;;;2.05;;
9248;SDS011;4660;41.768;26.198;2022-08-04T11:11:16;4.70;;;1.98;;
9248;SDS011;4660;41.768;26.198;2022-08-04T11:14:10;5.72;;;1.92;;
9248;SDS011;4660;41.768;26.198;2022-08-04T11:16:56;3.05;;;1.83;;
9248;SDS011;4660;41.768;26.198;2022-08-04T11:28:30;1.95;;;1.70;;
9248;SDS011;4660;41.768;26.198;2022-08-04T11:31:19;4.68;;;1.77;;
9248;SDS011;4660;41.768;26.198;2022-08-04T11:36:51;3.17;;;2.03;;
9248;SDS011;4660;41.768;26.198;2022-08-04T11:39:46;2.00;;;1.65;;
9248;SDS011;4660;41.768;26.198;2022-08-04T11:42:42;4.72;;;1.90;;
9248;SDS011;4660;41.768;26.198;2022-08-04T11:45:24;2.22;;;2.00;;
9248;SDS011;4660;41.768;26.198;2022-08-04T11:47:57;3.53;;;1.90;;
9248;SDS011;4660;41.768;26.198;2022-08-04T11:50:46;1.85;;;1.73;;
9248;SDS011;4660;41.768;26.198;2022-08-04T11:53:19;3.50;;;1.70;;
9248;SDS011;4660;41.768;26.198;2022-08-04T11:55:49;1.85;;;1.75;;
9248;SDS011;4660;41.768;26.198;2022-08-04T11:58:17;1.85;;;1.75;;
9248;SDS011;4660;41.768;26.198;2022-08-04T12:01:37;1.88;;;1.70;;
9248;SDS011;4660;41.768;26.198;2022-08-04T12:12:49;4.60;;;1.80;;
9248;SDS011;4660;41.768;26.198;2022-08-04T12:15:25;3.38;;;1.65;;
9248;SDS011;4660;41.768;26.198;2022-08-04T12:18:16;3.22;;;1.63;;
9248;SDS011;4660;41.768;26.198;2022-08-04T12:21:17;1.98;;;1.77;;
9248;SDS011;4660;41.768;26.198;2022-08-04T12:23:52;2.10;;;1.90;;
9248;SDS011;4660;41.768;26.198;2022-08-04T12:26:27;2.50;;;1.70;;
9248;SDS011;4660;41.768;26.198;2022-08-04T12:28:58;3.47;;;2.00;;
9248;SDS011;4660;41.768;26.198;2022-08-04T12:31:26;2.38;;;1.80;;
9248;SDS011;4660;41.768;26.198;2022-08-04T12:40:12;3.13;;;1.75;;
9248;SDS011;4660;41.768;26.198;2022-08-04T12:45:26;2.03;;;1.75;;
9248;SDS011;4660;41.768;26.198;2022-08-04T12:47:56;3.80;;;1.92;;
9248;SDS011;4660;41.768;26.198;2022-08-04T12:50:25;2.35;;;1.95;;
9248;SDS011;4660;41.768;26.198;2022-08-04T12:52:56;3.50;;;1.65;;
9248;SDS011;4660;41.768;26.198;2022-08-04T12:55:24;1.77;;;1.67;;
9248;SDS011;4660;41.768;26.198;2022-08-04T12:57:53;2.20;;;1.95;;
9248;SDS011;4660;41.768;26.198;2022-08-04T13:00:28;2.88;;;1.98;;
9248;SDS011;4660;41.768;26.198;2022-08-04T13:03:04;1.95;;;1.73;;
9248;SDS011;4660;41.768;26.198;2022-08-04T13:05:33;4.60;;;1.90;;
9248;SDS011;4660;41.768;26.198;2022-08-04T13:08:49;4.00;;;1.90;;
9248;SDS011;4660;41.768;26.198;2022-08-04T13:11:15;3.05;;;1.70;;
9248;SDS011;4660;41.768;26.198;2022-08-04T13:13:49;1.98;;;1.83;;
9248;SDS011;4660;41.768;26.198;2022-08-04T13:16:32;2.38;;;1.80;;
9248;SDS011;4660;41.768;26.198;2022-08-04T13:19:31;2.00;;;1.80;;
9248;SDS011;4660;41.768;26.198;2022-08-04T13:22:00;2.25;;;2.05;;
9248;SDS011;4660;41.768;26.198;2022-08-04T13:24:27;6.43;;;2.08;;
9248;SDS011;4660;41.768;26.198;2022-08-04T13:26:59;2.17;;;2.00;;
9248;SDS011;4660;41.768;26.198;2022-08-04T13:29:34;2.10;;;1.90;;
9248;SDS011;4660;41.768;26.198;2022-08-04T13:32:03;7.32;;;2.00;;
9248;SDS011;4660;41.768;26.198;2022-08-04T13:34:32;4.68;;;2.33;;
9248;SDS011;4660;41.768;26.198;2022-08-04T13:37:04;1.95;;;1.75;;
9248;SDS011;4660;41.768;26.198;2022-08-04T13:39:33;1.95;;;1.85;;
9248;SDS011;4660;41.768;26.198;2022-08-04T13:42:01;1.88;;;1.75;;
9248;SDS011;4660;41.768;26.198;2022-08-04T13:44:33;1.95;;;1.85;;
9248;SDS011;4660;41.768;26.198;2022-08-04T13:47:08;2.50;;;1.85;;
9248;SDS011;4660;41.768;26.198;2022-08-04T13:49:37;1.85;;;1.70;;
9248;SDS011;4660;41.768;26.198;2022-08-04T13:52:03;1.92;;;1.83;;
9248;SDS011;4660;41.768;26.198;2022-08-04T13:54:36;4.32;;;1.77;;
9248;SDS011;4660;41.768;26.198;2022-08-04T13:57:06;2.05;;;1.85;;
9248;SDS011;4660;41.768;26.198;2022-08-04T13:59:36;1.95;;;1.80;;
9248;SDS011;4660;41.768;26.198;2022-08-04T14:02:06;3.13;;;1.80;;
9248;SDS011;4660;41.768;26.198;2022-08-04T14:04:39;3.42;;;2.38;;
9248;SDS011;4660;41.768;26.198;2022-08-04T14:07:14;1.95;;;1.75;;
9248;SDS011;4660;41.768;26.198;2022-08-04T14:09:43;3.00;;;1.67;;
9248;SDS011;4660;41.768;26.198;2022-08-04T14:12:11;4.20;;;2.10;;
9248;SDS011;4660;41.768;26.198;2022-08-04T14:14:47;3.80;;;1.92;;
9248;SDS011;4660;41.768;26.198;2022-08-04T14:17:15;2.95;;;2.05;;
9248;SDS011;4660;41.768;26.198;2022-08-04T14:27:52;2.00;;;1.80;;
9248;SDS011;4660;41.768;26.198;2022-08-04T14:35:34;3.30;;;2.00;;
9248;SDS011;4660;41.768;26.198;2022-08-04T14:38:04;1.83;;;1.65;;
9248;SDS011;4660;41.768;26.198;2022-08-04T14:40:38;4.20;;;2.00;;
9248;SDS011;4660;41.768;26.198;2022-08-04T14:43:05;2.10;;;1.90;;
9248;SDS011;4660;41.768;26.198;2022-08-04T14:45:50;3.22;;;1.90;;
9248;SDS011;4660;41.768;26.198;2022-08-04T14:48:18;2.97;;;1.80;;
9248;SDS011;4660;41.768;26.198;2022-08-04T14:50:47;5.05;;;1.90;;
9248;SDS011;4660;41.768;26.198;2022-08-04T14:53:15;2.83;;;1.60;;
9248;SDS011;4660;41.768;26.198;2022-08-04T14:55:48;17.30;;;1.85;;
9248;SDS011;4660;41.768;26.198;2022-08-04T14:58:27;2.00;;;1.80;;
9248;SDS011;4660;41.768;26.198;2022-08-04T15:00:56;3.10;;;2.00;;
9248;SDS011;4660;41.768;26.198;2022-08-04T15:03:25;2.33;;;1.90;;
9248;SDS011;4660;41.768;26.198;2022-08-04T15:05:55;2.28;;;2.08;;
9248;SDS011;4660;41.768;26.198;2022-08-04T15:08:24;4.30;;;2.10;;
9248;SDS011;4660;41.768;26.198;2022-08-04T15:10:58;2.20;;;2.00;;
9248;SDS011;4660;41.768;26.198;2022-08-04T15:13:43;3.08;;;1.88;;
9248;SDS011;4660;41.768;26.198;2022-08-04T15:16:10;4.75;;;2.13;;
9248;SDS011;4660;41.768;26.198;2022-08-04T15:18:37;2.00;;;1.80;;
9248;SDS011;4660;41.768;26.198;2022-08-04T15:21:07;4.00;;;1.70;;
9248;SDS011;4660;41.768;26.198;2022-08-04T15:23:40;4.82;;;1.88;;
9248;SDS011;4660;41.768;26.198;2022-08-04T15:26:10;2.13;;;1.73;;
9248;SDS011;4660;41.768;26.198;2022-08-04T15:28:53;2.95;;;2.15;;
9248;SDS011;4660;41.768;26.198;2022-08-04T15:31:22;1.88;;;1.77;;
9248;SDS011;4660;41.768;26.198;2022-08-04T15:33:53;2.63;;;1.83;;
9248;SDS011;4660;41.768;26.198;2022-08-04T15:36:51;3.22;;;1.67;;
9248;SDS011;4660;41.768;26.198;2022-08-04T15:39:32;3.50;;;1.95;;
9248;SDS011;4660;41.768;26.198;2022-08-04T15:42:29;3.58;;;2.10;;
9248;SDS011;4660;41.768;26.198;2022-08-04T15:47:41;2.30;;;2.10;;
9248;SDS011;4660;41.768;26.198;2022-08-04T15:50:09;2.33;;;2.13;;
9248;SDS011;4660;41.768;26.198;2022-08-04T15:55:30;2.30;;;2.10;;
9248;SDS011;4660;41.768;26.198;2022-08-04T15:58:09;2.38;;;2.17;;
9248;SDS011;4660;41.768;26.198;2022-08-04T16:19:15;2.45;;;2.20;;
9248;SDS011;4660;41.768;26.198;2022-08-04T16:21:58;4.90;;;2.65;;
9248;SDS011;4660;41.768;26.198;2022-08-04T16:24:36;2.20;;;2.00;;
9248;SDS011;4660;41.768;26.198;2022-08-04T16:27:10;3.88;;;2.40;;
9248;SDS011;4660;41.768;26.198;2022-08-04T16:29:38;5.53;;;2.38;;
9248;SDS011;4660;41.768;26.198;2022-08-04T16:34:37;2.83;;;2.45;;
9248;SDS011;4660;41.768;26.198;2022-08-04T16:37:35;3.35;;;3.05;;
9248;SDS011;4660;41.768;26.198;2022-08-04T16:42:52;4.75;;;3.03;;
9248;SDS011;4660;41.768;26.198;2022-08-04T16:45:22;3.30;;;2.28;;
9248;SDS011;4660;41.768;26.198;2022-08-04T16:48:27;2.47;;;2.17;;
9248;SDS011;4660;41.768;26.198;2022-08-04T16:50:57;3.95;;;2.70;;
9248;SDS011;4660;41.768;26.198;2022-08-04T16:53:27;4.28;;;2.58;;
9248;SDS011;4660;41.768;26.198;2022-08-04T16:55:58;5.15;;;2.55;;
9248;SDS011;4660;41.768;26.198;2022-08-04T16:58:25;3.55;;;2.35;;
9248;SDS011;4660;41.768;26.198;2022-08-04T17:00:51;2.70;;;2.50;;
9248;SDS011;4660;41.768;26.198;2022-08-04T17:03:17;2.80;;;2.30;;
9248;SDS011;4660;41.768;26.198;2022-08-04T17:05:45;3.75;;;2.55;;
9248;SDS011;4660;41.768;26.198;2022-08-04T17:08:11;6.75;;;2.75;;
9248;SDS011;4660;41.768;26.198;2022-08-04T17:10:40;3.78;;;2.70;;
9248;SDS011;4660;41.768;26.198;2022-08-04T17:13:24;5.55;;;3.25;;
9248;SDS011;4660;41.768;26.198;2022-08-04T17:16:01;5.55;;;2.70;;
9248;SDS011;4660;41.768;26.198;2022-08-04T17:18:38;4.53;;;2.92;;
9248;SDS011;4660;41.768;26.198;2022-08-04T17:21:07;3.80;;;2.90;;
9248;SDS011;4660;41.768;26.198;2022-08-04T17:23:39;8.57;;;3.30;;
9248;SDS011;4660;41.768;26.198;2022-08-04T17:26:12;7.90;;;3.30;;
9248;SDS011;4660;41.768;26.198;2022-08-04T17:28:44;3.30;;;2.78;;
9248;SDS011;4660;41.768;26.198;2022-08-04T17:31:12;4.82;;;3.38;;
9248;SDS011;4660;41.768;26.198;2022-08-04T17:33:39;4.72;;;2.92;;
9248;SDS011;4660;41.768;26.198;2022-08-04T17:36:09;5.07;;;2.88;;
9248;SDS011;4660;41.768;26.198;2022-08-04T17:38:38;3.42;;;2.67;;
9248;SDS011;4660;41.768;26.198;2022-08-04T17:41:07;4.78;;;2.80;;
9248;SDS011;4660;41.768;26.198;2022-08-04T17:54:29;5.78;;;3.70;;
9248;SDS011;4660;41.768;26.198;2022-08-04T17:57:00;4.50;;;3.13;;
9248;SDS011;4660;41.768;26.198;2022-08-04T17:59:39;3.33;;;2.58;;
9248;SDS011;4660;41.768;26.198;2022-08-04T18:02:09;5.50;;;3.15;;
9248;SDS011;4660;41.768;26.198;2022-08-04T18:07:12;7.07;;;3.00;;
9248;SDS011;4660;41.768;26.198;2022-08-04T18:10:06;5.00;;;2.38;;
9248;SDS011;4660;41.768;26.198;2022-08-04T18:12:35;2.53;;;2.33;;
9248;SDS011;4660;41.768;26.198;2022-08-04T18:15:05;2.45;;;2.25;;
9248;SDS011;4660;41.768;26.198;2022-08-04T18:17:50;3.22;;;2.60;;
9248;SDS011;4660;41.768;26.198;2022-08-04T18:20:17;2.97;;;2.63;;
9248;SDS011;4660;41.768;26.198;2022-08-04T18:22:44;3.42;;;2.30;;
9248;SDS011;4660;41.768;26.198;2022-08-04T18:25:16;2.33;;;2.13;;
9248;SDS011;4660;41.768;26.198;2022-08-04T18:27:46;2.78;;;2.47;;
9248;SDS011;4660;41.768;26.198;2022-08-04T18:30:16;6.80;;;2.78;;
9248;SDS011;4660;41.768;26.198;2022-08-04T18:33:01;3.22;;;2.90;;
9248;SDS011;4660;41.768;26.198;2022-08-04T18:35:35;4.35;;;3.17;;
9248;SDS011;4660;41.768;26.198;2022-08-04T18:38:04;2.80;;;2.55;;
9248;SDS011;4660;41.768;26.198;2022-08-04T18:40:30;3.28;;;2.75;;
9248;SDS011;4660;41.768;26.198;2022-08-04T18:42:57;3.33;;;2.80;;
9248;SDS011;4660;41.768;26.198;2022-08-04T18:45:23;4.65;;;2.55;;
9248;SDS011;4660;41.768;26.198;2022-08-04T18:47:49;6.65;;;2.60;;
9248;SDS011;4660;41.768;26.198;2022-08-04T18:50:22;2.92;;;2.53;;
9248;SDS011;4660;41.768;26.198;2022-08-04T18:52:48;2.50;;;2.30;;
9248;SDS011;4660;41.768;26.198;2022-08-04T18:55:22;4.28;;;2.70;;
9248;SDS011;4660;41.768;26.198;2022-08-04T18:57:48;4.38;;;2.67;;
9248;SDS011;4660;41.768;26.198;2022-08-04T19:00:15;6.80;;;3.10;;
9248;SDS011;4660;41.768;26.198;2022-08-04T19:02:51;3.55;;;2.72;;
9248;SDS011;4660;41.768;26.198;2022-08-04T19:05:19;4.68;;;3.78;;
9248;SDS011;4660;41.768;26.198;2022-08-04T19:07:46;6.32;;;3.97;;
9248;SDS011;4660;41.768;26.198;2022-08-04T19:10:14;4.13;;;3.40;;
9248;SDS011;4660;41.768;26.198;2022-08-04T19:12:39;5.75;;;3.55;;
9248;SDS011;4660;41.768;26.198;2022-08-04T19:15:07;2.92;;;2.72;;
9248;SDS011;4660;41.768;26.198;2022-08-04T19:17:33;6.25;;;4.20;;
9248;SDS011;4660;41.768;26.198;2022-08-04T19:19:59;5.40;;;3.65;;
9248;SDS011;4660;41.768;26.198;2022-08-04T19:22:27;3.90;;;3.00;;
9248;SDS011;4660;41.768;26.198;2022-08-04T19:24:54;5.10;;;2.97;;
9248;SDS011;4660;41.768;26.198;2022-08-04T19:27:19;3.33;;;3.03;;
9248;SDS011;4660;41.768;26.198;2022-08-04T19:29:47;3.50;;;2.88;;
9248;SDS011;4660;41.768;26.198;2022-08-04T19:32:13;7.40;;;4.25;;
9248;SDS011;4660;41.768;26.198;2022-08-04T19:34:39;3.40;;;3.10;;
9248;SDS011;4660;41.768;26.198;2022-08-04T19:37:06;4.45;;;2.67;;
9248;SDS011;4660;41.768;26.198;2022-08-04T19:39:32;6.05;;;2.70;;
9248;SDS011;4660;41.768;26.198;2022-08-04T19:42:02;5.05;;;2.60;;
9248;SDS011;4660;41.768;26.198;2022-08-04T19:44:27;3.92;;;3.10;;
9248;SDS011;4660;41.768;26.198;2022-08-04T19:46:55;4.10;;;3.17;;
9248;SDS011;4660;41.768;26.198;2022-08-04T19:49:20;3.65;;;3.30;;
9248;SDS011;4660;41.768;26.198;2022-08-04T19:51:46;3.15;;;2.90;;
9248;SDS011;4660;41.768;26.198;2022-08-04T19:54:13;3.20;;;2.90;;
9248;SDS011;4660;41.768;26.198;2022-08-04T19:56:39;3.33;;;2.70;;
9248;SDS011;4660;41.768;26.198;2022-08-04T19:59:10;3.53;;;3.20;;
9248;SDS011;4660;41.768;26.198;2022-08-04T20:01:38;3.33;;;3.03;;
9248;SDS011;4660;41.768;26.198;2022-08-04T20:04:04;4.95;;;3.10;;
9248;SDS011;4660;41.768;26.198;2022-08-04T20:06:30;6.18;;;3.30;;
9248;SDS011;4660;41.768;26.198;2022-08-04T20:08:56;5.55;;;3.22;;
9248;SDS011;4660;41.768;26.198;2022-08-04T20:11:22;5.30;;;2.92;;
9248;SDS011;4660;41.768;26.198;2022-08-04T20:13:48;7.60;;;3.20;;
9248;SDS011;4660;41.768;26.198;2022-08-04T20:16:14;8.07;;;5.45;;
9248;SDS011;4660;41.768;26.198;2022-08-04T20:18:41;6.85;;;4.10;;
9248;SDS011;4660;41.768;26.198;2022-08-04T20:21:19;7.20;;;3.20;;
9248;SDS011;4660;41.768;26.198;2022-08-04T20:23:45;4.55;;;2.90;;
9248;SDS011;4660;41.768;26.198;2022-08-04T20:26:11;5.68;;;2.70;;
9248;SDS011;4660;41.768;26.198;2022-08-04T20:28:38;7.65;;;3.40;;